createdAt,value
2019-04-16T00:00:26.150Z,5.70
2019-04-16T00:02:30.777Z,5.60
2019-04-16T00:04:46.700Z,5.50
2019-04-16T00:07:09.279Z,5.50
2019-04-16T00:09:11.302Z,5.40
2019-04-16T00:11:30.689Z,5.30
2019-04-16T00:13:27.910Z,5.30
2019-04-16T00:15:23.537Z,5.20
2019-04-16T00:17:18.340Z,5.10
2019-04-16T00:19:12.746Z,5.10
2019-04-16T00:21:25.555Z,5.00
2019-04-16T00:23:28.610Z,5.00
2019-04-16T00:25:22.627Z,4.90
2019-04-16T00:27:17.712Z,4.90
2019-04-16T00:29:12.218Z,4.90
2019-04-16T00:31:06.767Z,4.90
2019-04-16T00:33:01.578Z,4.80
2019-04-16T00:34:56.901Z,4.80
2019-04-16T00:36:50.634Z,4.80
2019-04-16T00:38:44.870Z,4.80
2019-04-16T00:40:39.082Z,4.80
2019-04-16T00:42:33.737Z,4.80
2019-04-16T00:44:28.807Z,4.80
2019-04-16T00:46:23.871Z,4.70
2019-04-16T00:48:18.635Z,4.70
2019-04-16T00:50:13.571Z,4.60
2019-04-16T00:52:08.295Z,4.60
2019-04-16T00:54:02.403Z,4.60
2019-04-16T00:55:56.254Z,4.60
2019-04-16T00:57:50.916Z,4.50
2019-04-16T00:59:45.396Z,4.60
2019-04-16T01:01:40.069Z,4.50
2019-04-16T01:03:34.863Z,4.50
2019-04-16T01:05:29.356Z,4.50
2019-04-16T01:07:26.223Z,4.50
2019-04-16T01:09:20.818Z,4.60
2019-04-16T01:11:15.510Z,4.60
2019-04-16T01:13:10.024Z,4.50
2019-04-16T01:15:05.154Z,4.50
2019-04-16T01:17:04.069Z,4.50
2019-04-16T01:18:57.794Z,4.40
2019-04-16T01:20:52.064Z,4.40
2019-04-16T01:22:47.447Z,4.30
2019-04-16T01:24:42.754Z,4.30
2019-04-16T01:26:37.438Z,4.20
2019-04-16T01:28:34.481Z,4.20
2019-04-16T01:30:53.770Z,4.20
2019-04-16T01:32:56.437Z,4.20
2019-04-16T01:34:59.423Z,4.20
2019-04-16T01:37:03.458Z,4.20
2019-04-16T01:39:14.894Z,4.20
2019-04-16T01:41:00.523Z,4.20
2019-04-16T01:42:56.088Z,4.20
2019-04-16T01:44:50.592Z,4.20
2019-04-16T01:46:45.015Z,4.10
2019-04-16T01:48:39.898Z,4.10
2019-04-16T01:50:34.011Z,4.10
2019-04-16T01:52:28.732Z,4.00
2019-04-16T01:54:23.475Z,4.00
2019-04-16T01:56:17.647Z,4.00
2019-04-16T01:58:12.035Z,3.90
2019-04-16T02:00:08.757Z,3.90
2019-04-16T02:02:03.993Z,3.90
2019-04-16T02:03:59.070Z,4.00
2019-04-16T02:05:54.879Z,4.00
2019-04-16T02:07:49.751Z,4.00
2019-04-16T02:09:44.669Z,4.00
2019-04-16T02:11:41.420Z,4.00
2019-04-16T02:13:35.315Z,4.00
2019-04-16T02:15:29.531Z,4.00
2019-04-16T02:17:26.703Z,3.90
2019-04-16T02:19:19.378Z,4.00
2019-04-16T02:21:13.097Z,4.00
2019-04-16T02:23:07.642Z,3.90
2019-04-16T02:25:02.481Z,3.90
2019-04-16T02:26:57.258Z,3.90
2019-04-16T02:28:52.107Z,3.90
2019-04-16T02:30:46.417Z,3.90
2019-04-16T02:32:41.753Z,3.80
2019-04-16T02:34:35.908Z,3.90
2019-04-16T02:36:30.405Z,4.00
2019-04-16T02:38:24.615Z,4.10
2019-04-16T02:40:19.320Z,4.10
2019-04-16T02:42:13.851Z,4.10
2019-04-16T02:44:14.091Z,4.20
2019-04-16T02:46:04.479Z,4.30
2019-04-16T02:47:59.417Z,4.30
2019-04-16T02:49:56.839Z,4.30
2019-04-16T02:52:05.750Z,4.30
2019-04-16T02:54:17.371Z,4.20
2019-04-16T02:56:29.849Z,4.10
2019-04-16T02:58:33.948Z,4.00
2019-04-16T03:00:42.612Z,3.90
2019-04-16T03:02:53.856Z,3.80
2019-04-16T03:04:52.654Z,3.70
2019-04-16T03:06:46.722Z,3.70
2019-04-16T03:08:40.670Z,3.70
2019-04-16T03:10:34.919Z,3.70
2019-04-16T03:12:29.995Z,3.60
2019-04-16T03:14:29.653Z,3.60
2019-04-16T03:16:28.060Z,3.50
2019-04-16T03:18:26.990Z,3.40
2019-04-16T03:20:24.039Z,3.40
2019-04-16T03:22:17.386Z,3.40
2019-04-16T03:24:12.219Z,3.30
2019-04-16T03:26:06.422Z,3.30
2019-04-16T03:28:01.038Z,3.30
2019-04-16T03:29:55.036Z,3.20
2019-04-16T03:31:57.561Z,3.20
2019-04-16T03:33:50.466Z,3.20
2019-04-16T03:35:41.599Z,3.20
2019-04-16T03:37:36.022Z,3.20
2019-04-16T03:39:29.795Z,3.10
2019-04-16T03:41:25.709Z,3.10
2019-04-16T03:43:19.801Z,3.10
2019-04-16T03:45:14.616Z,3.10
2019-04-16T03:47:09.247Z,3.10
2019-04-16T03:49:04.183Z,3.00
2019-04-16T03:51:00.508Z,3.00
2019-04-16T03:52:53.863Z,3.00
2019-04-16T03:54:48.248Z,3.10
2019-04-16T03:56:42.490Z,3.10
2019-04-16T03:58:38.541Z,3.10
2019-04-16T04:00:32.138Z,3.10
2019-04-16T04:02:26.772Z,3.10
2019-04-16T04:04:21.629Z,3.10
2019-04-16T04:06:17.138Z,3.00
2019-04-16T04:08:16.367Z,3.00
2019-04-16T04:10:08.931Z,2.90
2019-04-16T04:12:03.573Z,2.90
2019-04-16T04:13:57.674Z,2.90
2019-04-16T04:15:54.849Z,3.00
2019-04-16T04:17:48.351Z,3.10
2019-04-16T04:19:43.516Z,3.20
2019-04-16T04:21:38.968Z,3.30
2019-04-16T04:23:33.943Z,3.30
2019-04-16T04:25:28.462Z,3.20
2019-04-16T04:27:22.538Z,3.20
2019-04-16T04:29:17.166Z,3.10
2019-04-16T04:31:11.946Z,3.00
2019-04-16T04:33:08.910Z,3.00
2019-04-16T04:35:02.534Z,2.90
2019-04-16T04:36:59.891Z,2.90
2019-04-16T04:38:52.148Z,2.90
2019-04-16T04:40:50.285Z,2.90
2019-04-16T04:42:42.192Z,2.90
2019-04-16T04:44:37.032Z,2.90
2019-04-16T04:46:31.591Z,2.90
2019-04-16T04:48:26.423Z,2.90
2019-04-16T04:50:20.946Z,2.90
2019-04-16T04:52:15.699Z,2.90
2019-04-16T04:54:10.274Z,2.90
2019-04-16T04:56:05.131Z,2.90
2019-04-16T04:58:02.506Z,3.00
2019-04-16T04:59:54.967Z,3.10
2019-04-16T05:01:49.769Z,3.10
2019-04-16T05:04:02.760Z,3.10
2019-04-16T05:05:58.313Z,3.20
2019-04-16T05:07:52.212Z,3.30
2019-04-16T05:09:47.022Z,3.30
2019-04-16T05:11:41.514Z,3.40
2019-04-16T05:13:35.891Z,3.40
2019-04-16T05:15:30.220Z,3.40
2019-04-16T05:17:26.866Z,3.40
2019-04-16T05:19:21.439Z,3.50
2019-04-16T05:21:18.671Z,3.50
2019-04-16T05:23:11.924Z,3.50
2019-04-16T05:25:07.116Z,3.70
2019-04-16T05:27:01.458Z,3.90
2019-04-16T05:28:57.765Z,4.20
2019-04-16T05:30:52.343Z,4.40
2019-04-16T05:32:47.610Z,4.60
2019-04-16T05:34:42.238Z,4.80
2019-04-16T05:36:36.156Z,5.00
2019-04-16T05:38:30.681Z,5.00
2019-04-16T05:40:27.562Z,5.10
2019-04-16T05:42:22.467Z,5.20
2019-04-16T05:44:17.179Z,5.30
2019-04-16T05:46:11.843Z,5.30
2019-04-16T05:48:06.515Z,5.40
2019-04-16T05:50:01.559Z,5.40
2019-04-16T05:51:56.276Z,5.50
2019-04-16T05:53:53.577Z,5.50
2019-04-16T05:55:58.563Z,5.60
2019-04-16T05:57:57.919Z,5.70
2019-04-16T05:59:51.043Z,5.80
2019-04-16T06:02:07.541Z,5.80
2019-04-16T06:04:01.927Z,5.90
2019-04-16T06:05:56.271Z,6.00
2019-04-16T06:07:54.447Z,6.10
2019-04-16T06:09:48.622Z,6.20
2019-04-16T06:11:43.544Z,6.30
2019-04-16T06:13:53.137Z,6.40
2019-04-16T06:15:57.511Z,6.40
2019-04-16T06:18:24.077Z,6.40
2019-04-16T06:20:44.779Z,6.50
2019-04-16T06:23:00.852Z,6.60
2019-04-16T06:25:13.701Z,6.60
2019-04-16T06:27:15.994Z,6.70
2019-04-16T06:29:25.408Z,6.70
2019-04-16T06:31:42.846Z,6.80
2019-04-16T06:33:46.082Z,6.90
2019-04-16T06:35:59.902Z,7.00
2019-04-16T06:38:04.931Z,7.10
2019-04-16T06:40:09.930Z,7.20
2019-04-16T06:42:22.461Z,7.30
2019-04-16T06:44:19.159Z,7.30
2019-04-16T06:46:31.310Z,7.50
2019-04-16T06:48:32.983Z,7.60
2019-04-16T06:50:45.583Z,7.80
2019-04-16T06:52:58.550Z,7.90
2019-04-16T06:54:56.643Z,8.10
2019-04-16T06:57:12.782Z,8.20
2019-04-16T06:59:31.075Z,8.40
2019-04-16T07:01:47.719Z,8.40
2019-04-16T07:04:10.862Z,8.60
2019-04-16T07:06:24.813Z,8.70
2019-04-16T07:08:37.456Z,8.80
2019-04-16T07:10:28.637Z,9.00
2019-04-16T07:12:26.994Z,9.20
2019-04-16T07:14:20.867Z,9.30
2019-04-16T07:16:14.930Z,9.40
2019-04-16T07:18:09.696Z,9.40
2019-04-16T07:20:05.077Z,9.50
2019-04-16T07:22:00.318Z,9.60
2019-04-16T07:23:58.196Z,9.70
2019-04-16T07:25:50.833Z,9.80
2019-04-16T07:27:58.111Z,9.80
2019-04-16T07:29:53.492Z,10.00
2019-04-16T07:31:54.598Z,10.00
2019-04-16T07:34:20.365Z,10.20
2019-04-16T07:36:31.378Z,10.40
2019-04-16T07:38:48.183Z,10.50
2019-04-16T07:41:12.027Z,10.60
2019-04-16T07:43:24.828Z,10.70
2019-04-16T07:45:44.815Z,10.90
2019-04-16T07:48:06.190Z,11.00
2019-04-16T07:50:20.135Z,11.20
2019-04-16T07:52:31.923Z,11.20
2019-04-16T07:54:31.816Z,11.30
2019-04-16T07:56:26.958Z,11.40
2019-04-16T07:58:20.976Z,11.40
2019-04-16T08:00:16.042Z,11.50
2019-04-16T08:02:10.959Z,11.60
2019-04-16T08:04:06.707Z,11.80
2019-04-16T08:06:00.764Z,11.90
2019-04-16T08:07:54.631Z,12.10
2019-04-16T08:09:49.662Z,12.20
2019-04-16T08:11:44.235Z,12.30
2019-04-16T08:13:39.715Z,12.40
2019-04-16T08:15:33.851Z,12.70
2019-04-16T08:17:28.439Z,12.70
2019-04-16T08:19:35.766Z,12.80
2019-04-16T08:21:22.488Z,12.80
2019-04-16T08:23:30.748Z,13.00
2019-04-16T08:25:33.570Z,13.10
2019-04-16T08:27:24.632Z,13.20
2019-04-16T08:29:19.204Z,13.30
2019-04-16T08:31:16.779Z,13.40
2019-04-16T08:33:11.509Z,13.60
2019-04-16T08:35:07.094Z,13.70
2019-04-16T08:37:01.227Z,13.70
2019-04-16T08:38:55.946Z,13.80
2019-04-16T08:40:50.214Z,14.00
2019-04-16T08:42:45.066Z,14.10
2019-04-16T08:44:39.935Z,14.00
2019-04-16T08:46:34.812Z,14.00
2019-04-16T08:48:28.797Z,14.10
2019-04-16T08:50:26.165Z,14.30
2019-04-16T08:52:19.518Z,14.40
2019-04-16T08:54:17.961Z,14.40
2019-04-16T08:56:09.985Z,14.40
2019-04-16T08:58:06.391Z,14.60
2019-04-16T09:00:00.313Z,14.70
2019-04-16T09:01:55.256Z,14.80
2019-04-16T09:03:50.405Z,14.90
2019-04-16T09:05:44.214Z,15.00
2019-04-16T09:07:42.050Z,15.10
2019-04-16T09:09:44.500Z,15.10
2019-04-16T09:11:42.880Z,15.30
2019-04-16T09:13:44.495Z,15.40
2019-04-16T09:15:38.022Z,15.60
2019-04-16T09:17:41.870Z,15.70
2019-04-16T09:19:37.007Z,15.80
2019-04-16T09:21:31.687Z,15.70
2019-04-16T09:23:27.214Z,15.80
2019-04-16T09:25:47.869Z,16.00
2019-04-16T09:27:46.975Z,16.10
2019-04-16T09:29:51.409Z,16.20
2019-04-16T09:32:04.325Z,16.10
2019-04-16T09:34:06.647Z,16.20
2019-04-16T09:36:22.614Z,16.30
2019-04-16T09:38:28.325Z,16.40
2019-04-16T09:40:40.731Z,16.50
2019-04-16T09:42:36.011Z,16.70
2019-04-16T09:44:35.009Z,16.90
2019-04-16T09:46:49.084Z,17.10
2019-04-16T09:48:22.512Z,17.10
2019-04-16T09:50:16.419Z,17.30
2019-04-16T09:52:10.783Z,17.40
2019-04-16T09:54:04.985Z,17.40
2019-04-16T09:56:02.045Z,17.60
2019-04-16T09:57:58.162Z,17.60
2019-04-16T09:59:56.218Z,17.80
2019-04-16T10:01:55.176Z,17.60
2019-04-16T10:03:53.688Z,17.90
2019-04-16T10:05:47.887Z,18.20
2019-04-16T10:07:42.504Z,18.40
2019-04-16T10:09:36.757Z,18.70
2019-04-16T10:11:32.645Z,18.70
2019-04-16T10:13:31.794Z,18.60
2019-04-16T10:15:22.820Z,18.40
2019-04-16T10:17:16.827Z,18.10
2019-04-16T10:19:12.869Z,17.90
2019-04-16T10:21:07.211Z,18.20
2019-04-16T10:23:04.144Z,18.50
2019-04-16T10:25:07.741Z,18.80
2019-04-16T10:27:04.412Z,18.90
2019-04-16T10:28:59.009Z,18.70
2019-04-16T10:30:55.018Z,18.60
2019-04-16T10:32:49.573Z,18.70
2019-04-16T10:34:44.081Z,18.60
2019-04-16T10:36:38.986Z,18.90
2019-04-16T10:38:58.360Z,19.00
2019-04-16T10:41:02.828Z,19.00
2019-04-16T10:43:19.330Z,19.30
2019-04-16T10:45:31.991Z,19.00
2019-04-16T10:47:36.721Z,19.00
2019-04-16T10:49:43.841Z,19.10
2019-04-16T10:52:06.947Z,18.90
2019-04-16T10:54:19.377Z,18.70
2019-04-16T10:56:32.727Z,18.40
2019-04-16T10:58:47.073Z,18.30
2019-04-16T11:01:04.560Z,18.40
2019-04-16T11:03:05.669Z,18.50
2019-04-16T11:05:34.760Z,18.80
2019-04-16T11:07:32.842Z,19.10
2019-04-16T11:09:27.625Z,19.10
2019-04-16T11:11:22.762Z,19.20
2019-04-16T11:13:30.500Z,19.30
2019-04-16T11:15:25.715Z,19.50
2019-04-16T11:17:21.412Z,19.60
2019-04-16T11:19:16.165Z,19.30
2019-04-16T11:21:12.230Z,19.10
2019-04-16T11:23:08.079Z,19.00
2019-04-16T11:25:02.837Z,19.10
2019-04-16T11:26:58.635Z,18.90
2019-04-16T11:28:53.477Z,19.10
2019-04-16T11:30:50.737Z,19.50
2019-04-16T11:32:45.477Z,19.50
2019-04-16T11:34:40.512Z,19.60
2019-04-16T11:36:35.594Z,19.70
2019-04-16T11:38:29.545Z,19.80
2019-04-16T11:40:24.183Z,19.60
2019-04-16T11:42:19.118Z,19.50
2019-04-16T11:44:16.537Z,19.20
2019-04-16T11:46:10.205Z,19.10
2019-04-16T11:48:05.090Z,19.20
2019-04-16T11:49:59.737Z,19.30
2019-04-16T11:51:54.668Z,19.50
2019-04-16T11:53:49.157Z,19.80
2019-04-16T11:55:44.087Z,19.90
2019-04-16T11:57:38.479Z,20.20
2019-04-16T11:59:33.652Z,20.50
2019-04-16T12:01:37.555Z,20.60
2019-04-16T12:03:46.187Z,20.60
2019-04-16T12:06:09.270Z,20.50
2019-04-16T12:08:38.171Z,20.30
2019-04-16T12:10:56.748Z,20.60
2019-04-16T12:13:09.985Z,20.50
2019-04-16T12:15:28.002Z,20.60
2019-04-16T12:17:40.830Z,20.80
2019-04-16T12:19:53.813Z,21.00
2019-04-16T12:22:05.760Z,21.10
2019-04-16T12:24:18.999Z,21.10
2019-04-16T12:26:36.167Z,20.80
2019-04-16T12:28:54.186Z,20.60
2019-04-16T12:31:05.890Z,20.60
2019-04-16T12:33:14.545Z,20.60
2019-04-16T12:35:16.566Z,20.50
2019-04-16T12:37:29.173Z,20.00
2019-04-16T12:39:41.160Z,19.80
2019-04-16T12:41:44.362Z,19.60
2019-04-16T12:43:43.392Z,19.50
2019-04-16T12:45:53.541Z,19.40
2019-04-16T12:47:59.158Z,19.40
2019-04-16T12:50:17.248Z,19.40
2019-04-16T12:52:37.615Z,19.30
2019-04-16T12:54:44.179Z,19.00
2019-04-16T12:56:49.820Z,19.00
2019-04-16T12:58:52.206Z,19.10
2019-04-16T13:00:59.797Z,19.30
2019-04-16T13:03:17.905Z,19.30
2019-04-16T13:05:31.675Z,19.30
2019-04-16T13:07:51.329Z,19.20
2019-04-16T13:10:03.516Z,19.20
2019-04-16T13:12:26.468Z,19.20
2019-04-16T13:14:42.462Z,19.40
2019-04-16T13:16:55.543Z,19.50
2019-04-16T13:19:21.630Z,19.70
2019-04-16T13:21:20.776Z,19.80
2019-04-16T13:23:28.013Z,19.90
2019-04-16T13:25:29.151Z,19.80
2019-04-16T13:27:31.057Z,19.90
2019-04-16T13:29:29.593Z,19.90
2019-04-16T13:31:25.145Z,19.80
2019-04-16T13:33:19.760Z,19.90
2019-04-16T13:35:14.147Z,19.80
2019-04-16T13:37:08.896Z,19.90
2019-04-16T13:39:14.576Z,20.20
2019-04-16T13:41:08.734Z,20.50
2019-04-16T13:43:05.753Z,20.60
2019-04-16T13:45:27.027Z,20.40
2019-04-16T13:47:20.486Z,20.60
2019-04-16T13:49:24.081Z,20.60
2019-04-16T13:51:19.133Z,20.40
2019-04-16T13:53:30.979Z,20.20
2019-04-16T13:55:33.036Z,19.90
2019-04-16T13:57:28.574Z,20.10
2019-04-16T13:59:56.868Z,20.00
2019-04-16T14:02:09.905Z,20.10
2019-04-16T14:04:04.014Z,20.00
2019-04-16T14:05:59.108Z,20.00
2019-04-16T14:07:55.198Z,19.90
2019-04-16T14:09:49.698Z,19.70
2019-04-16T14:11:44.265Z,19.80
2019-04-16T14:13:38.646Z,19.70
2019-04-16T14:15:38.942Z,19.80
2019-04-16T14:17:34.836Z,19.70
2019-04-16T14:19:27.335Z,19.70
2019-04-16T14:21:21.786Z,19.90
2019-04-16T14:23:17.095Z,19.90
2019-04-16T14:25:11.363Z,19.50
2019-04-16T14:27:06.338Z,19.60
2019-04-16T14:29:05.557Z,19.60
2019-04-16T14:30:57.390Z,19.50
2019-04-16T14:32:51.915Z,19.40
2019-04-16T14:34:54.198Z,19.30
2019-04-16T14:36:48.887Z,19.10
2019-04-16T14:38:48.770Z,18.90
2019-04-16T14:40:43.553Z,18.80
2019-04-16T14:42:38.213Z,18.60
2019-04-16T14:44:38.341Z,18.70
2019-04-16T14:46:32.328Z,18.90
2019-04-16T14:48:26.607Z,18.80
2019-04-16T14:50:23.382Z,18.80
2019-04-16T14:52:16.644Z,18.60
2019-04-16T14:54:17.922Z,18.60
2019-04-16T14:56:20.447Z,18.60
2019-04-16T14:58:46.715Z,18.60
2019-04-16T15:00:58.548Z,18.60
2019-04-16T15:03:10.184Z,18.60
2019-04-16T15:05:27.470Z,18.60
2019-04-16T15:07:44.135Z,18.60
2019-04-16T15:09:41.940Z,18.80
2019-04-16T15:11:54.626Z,18.90
2019-04-16T15:14:08.529Z,19.00
2019-04-16T15:16:25.447Z,18.90
2019-04-16T15:18:39.207Z,18.80
2019-04-16T15:20:50.646Z,18.70
2019-04-16T15:23:13.163Z,18.60
2019-04-16T15:25:26.411Z,18.50
2019-04-16T15:27:31.625Z,18.40
2019-04-16T15:29:52.532Z,18.30
2019-04-16T15:31:56.526Z,18.20
2019-04-16T15:34:19.062Z,18.20
2019-04-16T15:36:19.794Z,18.20
2019-04-16T15:38:29.594Z,18.10
2019-04-16T15:40:40.288Z,18.10
2019-04-16T15:42:50.826Z,18.10
2019-04-16T15:44:57.403Z,18.00
2019-04-16T15:47:26.978Z,18.10
2019-04-16T15:49:28.778Z,18.00
2019-04-16T15:51:44.407Z,18.00
2019-04-16T15:53:59.867Z,17.90
2019-04-16T15:55:59.855Z,17.90
2019-04-16T15:58:13.589Z,17.90
2019-04-16T16:00:34.035Z,18.00
2019-04-16T16:02:46.607Z,18.10
2019-04-16T16:04:58.079Z,18.20
2019-04-16T16:07:08.702Z,18.20
2019-04-16T16:09:09.251Z,18.20
2019-04-16T16:11:06.815Z,18.20
2019-04-16T16:13:02.146Z,18.10
2019-04-16T16:14:57.491Z,18.00
2019-04-16T16:16:52.326Z,17.90
2019-04-16T16:18:46.966Z,17.80
2019-04-16T16:20:41.583Z,17.70
2019-04-16T16:22:36.279Z,17.70
2019-04-16T16:24:30.467Z,17.70
2019-04-16T16:26:25.362Z,17.70
2019-04-16T16:28:19.980Z,17.70
2019-04-16T16:30:15.662Z,17.70
2019-04-16T16:32:10.234Z,17.70
2019-04-16T16:34:08.278Z,17.80
2019-04-16T16:36:00.439Z,17.80
2019-04-16T16:37:55.322Z,17.80
2019-04-16T16:39:49.451Z,17.90
2019-04-16T16:41:46.717Z,17.90
2019-04-16T16:43:41.840Z,17.70
2019-04-16T16:46:02.057Z,17.60
2019-04-16T16:47:56.456Z,17.30
2019-04-16T16:49:51.263Z,17.10
2019-04-16T16:52:08.177Z,17.00
2019-04-16T16:54:11.263Z,16.80
2019-04-16T16:56:25.586Z,16.60
2019-04-16T16:58:31.102Z,16.50
2019-04-16T17:00:36.039Z,16.30
2019-04-16T17:02:35.222Z,16.20
2019-04-16T17:04:32.839Z,16.10
2019-04-16T17:06:27.796Z,16.10
2019-04-16T17:08:22.562Z,16.00
2019-04-16T17:10:17.146Z,15.90
2019-04-16T17:12:11.638Z,15.80
2019-04-16T17:14:05.999Z,15.80
2019-04-16T17:16:00.258Z,15.70
2019-04-16T17:17:55.056Z,15.60
2019-04-16T17:19:50.862Z,15.50
2019-04-16T17:21:45.847Z,15.50
2019-04-16T17:23:40.408Z,15.40
2019-04-16T17:25:36.621Z,15.30
2019-04-16T17:27:33.538Z,15.30
2019-04-16T17:29:28.604Z,15.20
2019-04-16T17:31:23.640Z,15.20
2019-04-16T17:33:18.548Z,15.10
2019-04-16T17:35:15.547Z,15.00
2019-04-16T17:37:08.706Z,14.90
2019-04-16T17:39:09.291Z,14.80
2019-04-16T17:41:03.649Z,14.70
2019-04-16T17:43:01.678Z,14.60
2019-04-16T17:45:15.102Z,14.50
2019-04-16T17:47:41.506Z,14.40
2019-04-16T17:49:45.494Z,14.30
2019-04-16T17:51:47.798Z,14.30
2019-04-16T17:53:45.910Z,14.20
2019-04-16T17:56:11.915Z,14.10
2019-04-16T17:58:24.205Z,14.10
2019-04-16T18:00:45.782Z,14.00
2019-04-16T18:03:07.750Z,14.00
2019-04-16T18:05:33.353Z,13.80
2019-04-16T18:07:43.080Z,13.70
2019-04-16T18:09:42.224Z,13.70
2019-04-16T18:11:44.591Z,13.60
2019-04-16T18:13:55.314Z,13.60
2019-04-16T18:16:01.844Z,13.60
2019-04-16T18:18:27.937Z,13.60
2019-04-16T18:20:35.437Z,13.50
2019-04-16T18:22:49.506Z,13.50
2019-04-16T18:25:01.655Z,13.40
2019-04-16T18:27:15.046Z,13.40
2019-04-16T18:29:22.218Z,13.30
2019-04-16T18:31:35.842Z,13.30
2019-04-16T18:33:47.911Z,13.20
2019-04-16T18:35:51.684Z,13.10
2019-04-16T18:38:08.751Z,13.00
2019-04-16T18:40:31.374Z,13.00
2019-04-16T18:42:51.373Z,12.90
2019-04-16T18:45:07.970Z,12.90
2019-04-16T18:47:20.236Z,12.90
2019-04-16T18:49:18.210Z,13.00
2019-04-16T18:51:12.766Z,12.90
2019-04-16T18:53:09.592Z,12.90
2019-04-16T18:55:02.780Z,12.80
2019-04-16T18:56:58.072Z,12.80
2019-04-16T18:58:52.898Z,12.70
2019-04-16T19:00:50.121Z,12.70
2019-04-16T19:02:44.732Z,12.60
2019-04-16T19:04:39.515Z,12.60
2019-04-16T19:06:34.159Z,12.50
2019-04-16T19:08:41.066Z,12.50
2019-04-16T19:10:25.031Z,12.40
2019-04-16T19:12:20.178Z,12.30
2019-04-16T19:14:15.323Z,12.30
2019-04-16T19:16:10.099Z,12.20
2019-04-16T19:18:18.093Z,12.10
2019-04-16T19:20:03.621Z,12.10
2019-04-16T19:21:56.510Z,12.00
2019-04-16T19:23:51.213Z,12.00
2019-04-16T19:25:46.193Z,11.90
2019-04-16T19:27:41.247Z,11.90
2019-04-16T19:29:35.203Z,11.80
2019-04-16T19:31:29.778Z,11.80
2019-04-16T19:33:24.754Z,11.70
2019-04-16T19:35:22.623Z,11.60
2019-04-16T19:37:14.946Z,11.70
2019-04-16T19:39:13.805Z,11.70
2019-04-16T19:41:06.075Z,11.70
2019-04-16T19:43:02.924Z,11.70
2019-04-16T19:44:56.659Z,11.70
2019-04-16T19:46:53.762Z,11.80
2019-04-16T19:48:46.922Z,11.70
2019-04-16T19:50:41.005Z,11.70
2019-04-16T19:52:34.980Z,11.70
2019-04-16T19:54:31.664Z,11.70
2019-04-16T19:56:24.846Z,11.70
2019-04-16T19:58:19.427Z,11.80
2019-04-16T20:00:14.532Z,11.80
2019-04-16T20:02:08.716Z,11.80
2019-04-16T20:04:09.273Z,11.90
2019-04-16T20:06:01.939Z,11.90
2019-04-16T20:07:56.624Z,12.00
2019-04-16T20:09:51.500Z,12.00
2019-04-16T20:11:46.083Z,12.00
2019-04-16T20:13:40.754Z,12.10
2019-04-16T20:15:35.543Z,12.00
2019-04-16T20:17:33.487Z,12.00
2019-04-16T20:19:27.574Z,12.00
2019-04-16T20:21:22.671Z,11.90
2019-04-16T20:23:17.056Z,11.90
2019-04-16T20:25:11.075Z,11.80
2019-04-16T20:27:07.026Z,11.70
2019-04-16T20:29:02.002Z,11.60
2019-04-16T20:31:01.909Z,11.50
2019-04-16T20:32:52.129Z,11.50
2019-04-16T20:34:46.793Z,11.40
2019-04-16T20:36:41.856Z,11.50
2019-04-16T20:38:35.952Z,11.60
2019-04-16T20:40:30.143Z,11.60
2019-04-16T20:42:24.557Z,11.70
2019-04-16T20:44:19.419Z,11.80
2019-04-16T20:46:14.100Z,11.80
2019-04-16T20:48:12.221Z,11.90
2019-04-16T20:50:06.037Z,11.90
2019-04-16T20:52:02.360Z,11.90
2019-04-16T20:53:56.607Z,11.90
2019-04-16T20:55:51.753Z,11.90
2019-04-16T20:57:46.156Z,11.90
2019-04-16T20:59:40.667Z,11.90
2019-04-16T21:01:37.655Z,11.80
2019-04-16T21:03:31.269Z,11.80
2019-04-16T21:05:26.135Z,11.80
2019-04-16T21:07:20.780Z,11.80
2019-04-16T21:09:18.816Z,11.80
2019-04-16T21:11:13.747Z,11.70
2019-04-16T21:13:08.135Z,11.70
2019-04-16T21:15:02.192Z,11.70
2019-04-16T21:16:57.278Z,11.60
2019-04-16T21:18:52.218Z,11.60
2019-04-16T21:20:50.818Z,11.50
2019-04-16T21:22:42.146Z,11.40
2019-04-16T21:24:39.471Z,11.30
2019-04-16T21:26:32.747Z,11.20
2019-04-16T21:28:35.043Z,11.10
2019-04-16T21:30:29.945Z,11.00
2019-04-16T21:32:53.213Z,10.90
2019-04-16T21:34:50.646Z,10.90
2019-04-16T21:37:10.649Z,10.90
2019-04-16T21:39:08.170Z,10.90
2019-04-16T21:41:03.675Z,10.80
2019-04-16T21:42:58.110Z,10.80
2019-04-16T21:44:52.607Z,10.80
2019-04-16T21:46:51.957Z,10.80
2019-04-16T21:48:43.340Z,10.80
2019-04-16T21:50:38.474Z,10.70
2019-04-16T21:52:32.779Z,10.70
2019-04-16T21:54:30.543Z,10.70
2019-04-16T21:56:23.539Z,10.70
2019-04-16T21:58:18.407Z,10.60
2019-04-16T22:00:33.092Z,10.60
2019-04-16T22:02:34.563Z,10.60
2019-04-16T22:04:27.838Z,10.50
2019-04-16T22:06:22.297Z,10.40
2019-04-16T22:08:16.754Z,10.30
2019-04-16T22:10:12.016Z,10.30
2019-04-16T22:12:06.531Z,10.20
2019-04-16T22:14:00.569Z,10.10
2019-04-16T22:15:57.262Z,9.90
2019-04-16T22:17:50.440Z,9.80
2019-04-16T22:19:53.787Z,9.70
2019-04-16T22:21:42.728Z,9.50
2019-04-16T22:23:35.958Z,9.40
2019-04-16T22:25:29.979Z,9.30
2019-04-16T22:27:24.960Z,9.20
2019-04-16T22:29:19.060Z,9.10
2019-04-16T22:31:13.098Z,9.00
2019-04-16T22:33:09.951Z,8.90
2019-04-16T22:35:05.022Z,8.90
2019-04-16T22:37:00.033Z,8.80
2019-04-16T22:39:00.159Z,8.80
2019-04-16T22:40:59.726Z,8.70
2019-04-16T22:43:07.035Z,8.70
2019-04-16T22:45:19.007Z,8.70
2019-04-16T22:47:16.703Z,8.80
2019-04-16T22:49:11.007Z,8.90
2019-04-16T22:51:09.690Z,9.10
2019-04-16T22:53:01.967Z,9.10
2019-04-16T22:54:56.883Z,9.20
2019-04-16T22:57:03.595Z,9.20
2019-04-16T22:58:58.556Z,9.30
2019-04-16T23:00:56.078Z,9.40
2019-04-16T23:02:50.171Z,9.50
2019-04-16T23:04:45.070Z,9.40
2019-04-16T23:06:39.723Z,9.40
2019-04-16T23:08:34.594Z,9.30
2019-04-16T23:10:28.881Z,9.20
2019-04-16T23:12:27.196Z,9.10
2019-04-16T23:14:19.063Z,8.90
2019-04-16T23:16:13.713Z,8.80
2019-04-16T23:18:08.791Z,8.70
2019-04-16T23:20:03.402Z,8.70
2019-04-16T23:21:59.138Z,8.60
2019-04-16T23:23:53.904Z,8.70
2019-04-16T23:25:48.369Z,8.70
2019-04-16T23:27:43.159Z,8.70
2019-04-16T23:29:37.458Z,8.70
2019-04-16T23:31:31.591Z,8.70
2019-04-16T23:33:26.375Z,8.60
2019-04-16T23:35:24.891Z,8.60
2019-04-16T23:37:17.371Z,8.50
2019-04-16T23:39:12.505Z,8.40
2019-04-16T23:41:07.303Z,8.30
2019-04-16T23:43:21.916Z,8.20
2019-04-16T23:45:34.835Z,8.10
2019-04-16T23:47:54.770Z,8.00
2019-04-16T23:49:55.486Z,8.00
2019-04-16T23:52:01.557Z,8.00
2019-04-16T23:53:57.583Z,7.90
2019-04-16T23:56:05.576Z,7.90
2019-04-16T23:58:18.426Z,7.80
